createdAt,value
2023-08-07T00:00:10.789Z,2.35
2023-08-07T00:02:38.353Z,3.00
2023-08-07T00:05:07.691Z,2.33
2023-08-07T00:07:35.305Z,2.15
2023-08-07T00:10:02.914Z,2.85
2023-08-07T00:12:30.324Z,3.17
2023-08-07T00:14:57.710Z,2.97
2023-08-07T00:17:25.120Z,2.55
2023-08-07T00:19:52.920Z,3.13
2023-08-07T00:22:20.461Z,2.50
2023-08-07T00:24:47.888Z,3.13
2023-08-07T00:27:15.531Z,2.75
2023-08-07T00:29:43.009Z,3.22
2023-08-07T00:32:10.660Z,3.10
2023-08-07T00:34:38.025Z,2.55
2023-08-07T00:37:05.735Z,3.33
2023-08-07T00:39:33.188Z,2.75
2023-08-07T00:42:00.715Z,2.88
2023-08-07T00:44:28.166Z,3.17
2023-08-07T00:46:55.863Z,2.85
2023-08-07T00:49:23.890Z,2.33
2023-08-07T00:51:51.558Z,2.72
2023-08-07T00:54:21.912Z,2.33
2023-08-07T00:56:49.340Z,2.58
2023-08-07T00:59:17.343Z,2.42
2023-08-07T01:01:44.784Z,2.20
2023-08-07T01:04:12.584Z,2.40
2023-08-07T01:06:39.939Z,2.30
2023-08-07T01:09:07.479Z,2.53
2023-08-07T01:11:43.928Z,2.10
2023-08-07T01:16:52.890Z,2.13
2023-08-07T01:19:29.069Z,1.90
2023-08-07T01:22:25.459Z,1.90
2023-08-07T01:24:52.957Z,2.50
2023-08-07T01:27:20.282Z,1.95
2023-08-07T01:29:59.399Z,1.63
2023-08-07T01:32:44.996Z,1.75
2023-08-07T01:35:15.464Z,2.33
2023-08-07T01:37:45.205Z,1.90
2023-08-07T01:40:14.698Z,2.30
2023-08-07T01:42:42.440Z,1.80
2023-08-07T01:45:10.175Z,1.90
2023-08-07T01:47:37.842Z,2.10
2023-08-07T01:50:05.688Z,2.15
2023-08-07T01:52:33.669Z,2.15
2023-08-07T01:55:00.993Z,1.90
2023-08-07T01:57:28.322Z,1.85
2023-08-07T01:59:55.780Z,1.98
2023-08-07T02:02:23.324Z,1.73
2023-08-07T02:04:50.667Z,1.60
2023-08-07T02:07:18.032Z,1.70
2023-08-07T02:09:45.476Z,2.17
2023-08-07T02:12:12.984Z,1.80
2023-08-07T02:14:40.404Z,1.70
2023-08-07T02:17:07.761Z,1.75
2023-08-07T02:19:35.261Z,2.17
2023-08-07T02:22:03.689Z,2.22
2023-08-07T02:24:31.215Z,1.70
2023-08-07T02:26:59.269Z,2.00
2023-08-07T02:29:26.715Z,1.88
2023-08-07T02:31:56.809Z,1.80
2023-08-07T02:34:24.397Z,1.73
2023-08-07T02:36:52.056Z,1.70
2023-08-07T02:39:19.376Z,1.67
2023-08-07T02:41:46.720Z,1.90
2023-08-07T02:44:14.102Z,2.50
2023-08-07T02:46:41.611Z,2.03
2023-08-07T02:49:08.937Z,2.28
2023-08-07T02:51:36.607Z,2.15
2023-08-07T02:54:04.000Z,2.30
2023-08-07T02:56:31.570Z,1.95
2023-08-07T02:58:59.394Z,2.00
2023-08-07T03:01:28.831Z,2.08
2023-08-07T03:03:56.466Z,2.30
2023-08-07T03:06:25.114Z,2.05
2023-08-07T03:08:52.495Z,2.17
2023-08-07T03:11:20.021Z,1.80
2023-08-07T03:13:48.231Z,2.25
2023-08-07T03:16:15.842Z,2.25
2023-08-07T03:18:43.357Z,2.53
2023-08-07T03:21:10.770Z,1.88
2023-08-07T03:23:38.163Z,2.22
2023-08-07T03:26:18.351Z,2.28
2023-08-07T03:28:50.457Z,1.92
2023-08-07T03:31:18.192Z,2.78
2023-08-07T03:33:45.801Z,2.10
2023-08-07T03:36:13.170Z,1.98
2023-08-07T03:38:40.525Z,2.42
2023-08-07T03:41:07.964Z,2.55
2023-08-07T03:43:35.498Z,2.40
2023-08-07T03:46:03.864Z,2.65
2023-08-07T03:48:32.558Z,3.50
2023-08-07T03:51:10.675Z,1.73
2023-08-07T03:53:38.694Z,2.53
2023-08-07T03:56:06.139Z,2.50
2023-08-07T03:58:33.526Z,1.85
2023-08-07T04:01:00.992Z,2.17
2023-08-07T04:03:28.593Z,2.28
2023-08-07T04:05:57.006Z,2.17
2023-08-07T04:08:24.747Z,1.85
2023-08-07T04:11:02.033Z,2.38
2023-08-07T04:13:29.694Z,2.47
2023-08-07T04:15:57.962Z,2.53
2023-08-07T04:18:25.672Z,2.75
2023-08-07T04:20:57.071Z,2.17
2023-08-07T04:23:25.098Z,2.65
2023-08-07T04:25:53.651Z,3.13
2023-08-07T04:28:21.116Z,2.15
2023-08-07T04:30:54.769Z,2.42
2023-08-07T04:33:22.644Z,2.53
2023-08-07T04:35:50.145Z,2.30
2023-08-07T04:38:18.285Z,2.10
2023-08-07T04:40:50.079Z,2.42
2023-08-07T04:43:19.260Z,3.20
2023-08-07T04:45:47.019Z,2.75
2023-08-07T04:48:15.394Z,2.30
2023-08-07T04:50:43.311Z,2.75
2023-08-07T04:53:10.873Z,4.00
2023-08-07T04:55:38.324Z,2.90
2023-08-07T04:58:05.906Z,2.58
2023-08-07T05:00:33.896Z,2.38
2023-08-07T05:03:02.634Z,2.97
2023-08-07T05:05:30.478Z,2.60
2023-08-07T05:07:59.907Z,2.38
2023-08-07T05:10:27.373Z,2.25
2023-08-07T05:12:57.739Z,2.80
2023-08-07T05:15:26.131Z,2.38
2023-08-07T05:17:53.980Z,2.78
2023-08-07T05:20:21.766Z,2.45
2023-08-07T05:22:49.295Z,2.70
2023-08-07T05:25:17.616Z,2.50
2023-08-07T05:27:48.442Z,2.47
2023-08-07T05:30:16.389Z,2.22
2023-08-07T05:32:44.044Z,2.88
2023-08-07T05:35:11.642Z,2.78
2023-08-07T05:37:39.228Z,3.08
2023-08-07T05:40:07.577Z,2.90
2023-08-07T05:42:36.252Z,3.17
2023-08-07T05:45:04.905Z,3.00
2023-08-07T05:47:33.774Z,3.20
2023-08-07T05:50:01.202Z,2.38
2023-08-07T05:52:28.752Z,3.13
2023-08-07T05:54:56.081Z,3.25
2023-08-07T05:57:23.388Z,2.67
2023-08-07T05:59:50.867Z,2.88
2023-08-07T06:02:18.321Z,2.72
2023-08-07T06:04:46.360Z,3.13
2023-08-07T06:07:13.892Z,2.70
2023-08-07T06:09:41.325Z,3.85
2023-08-07T06:12:09.189Z,3.15
2023-08-07T06:14:38.110Z,4.28
2023-08-07T06:17:06.831Z,2.63
2023-08-07T06:19:34.270Z,2.58
2023-08-07T06:22:02.002Z,3.63
2023-08-07T06:24:29.924Z,2.70
2023-08-07T06:26:57.323Z,3.50
2023-08-07T06:29:24.641Z,3.10
2023-08-07T06:31:52.034Z,3.20
2023-08-07T06:34:19.761Z,3.70
2023-08-07T06:36:47.185Z,3.53
2023-08-07T06:39:14.849Z,3.67
2023-08-07T06:41:42.193Z,2.97
2023-08-07T06:44:09.501Z,2.55
2023-08-07T06:46:36.841Z,3.03
2023-08-07T06:49:04.140Z,3.30
2023-08-07T06:51:31.662Z,3.70
2023-08-07T06:53:59.012Z,5.07
2023-08-07T06:56:26.391Z,4.82
2023-08-07T06:58:53.764Z,4.95
2023-08-07T07:01:21.125Z,3.67
2023-08-07T07:03:53.522Z,2.90
2023-08-07T07:06:22.533Z,4.15
2023-08-07T07:08:50.176Z,2.83
2023-08-07T07:11:18.928Z,2.72
2023-08-07T07:13:48.131Z,2.80
2023-08-07T07:16:15.659Z,2.78
2023-08-07T07:18:43.059Z,3.50
2023-08-07T07:21:10.598Z,3.50
2023-08-07T07:23:37.934Z,2.78
2023-08-07T07:26:05.427Z,2.42
2023-08-07T07:28:32.889Z,4.32
2023-08-07T07:31:00.368Z,3.05
2023-08-07T07:33:29.032Z,2.92
2023-08-07T07:35:56.824Z,3.08
2023-08-07T07:38:24.185Z,2.92
2023-08-07T07:40:51.598Z,3.55
2023-08-07T07:43:18.947Z,2.45
2023-08-07T07:45:46.616Z,2.40
2023-08-07T07:48:13.975Z,2.55
2023-08-07T07:50:41.945Z,3.10
2023-08-07T07:53:09.518Z,2.58
2023-08-07T07:55:39.087Z,2.58
2023-08-07T07:58:07.429Z,2.30
2023-08-07T08:00:34.839Z,2.05
2023-08-07T08:03:02.308Z,2.40
2023-08-07T08:05:29.975Z,2.67
2023-08-07T08:07:59.620Z,2.00
2023-08-07T08:10:27.185Z,2.00
2023-08-07T08:12:57.779Z,2.78
2023-08-07T08:15:25.492Z,2.58
2023-08-07T08:17:52.942Z,2.50
2023-08-07T08:20:20.596Z,1.88
2023-08-07T08:22:48.269Z,1.80
2023-08-07T08:25:15.609Z,2.15
2023-08-07T08:27:45.841Z,2.40
2023-08-07T08:30:13.275Z,2.42
2023-08-07T08:32:40.892Z,1.92
2023-08-07T08:35:08.624Z,1.92
2023-08-07T08:37:36.021Z,2.55
2023-08-07T08:40:03.562Z,2.03
2023-08-07T08:42:31.420Z,2.13
2023-08-07T08:45:00.691Z,2.00
2023-08-07T08:47:29.114Z,2.03
2023-08-07T08:50:03.887Z,2.60
2023-08-07T08:52:33.580Z,1.92
2023-08-07T08:55:02.004Z,2.05
2023-08-07T08:57:30.419Z,1.92
2023-08-07T08:59:58.811Z,2.38
2023-08-07T09:02:26.765Z,2.58
2023-08-07T09:04:54.207Z,1.95
2023-08-07T09:07:21.928Z,2.45
2023-08-07T09:09:51.013Z,2.05
2023-08-07T09:12:21.881Z,1.70
2023-08-07T09:14:56.155Z,1.77
2023-08-07T09:17:30.385Z,1.55
2023-08-07T09:19:58.284Z,2.03
2023-08-07T09:22:25.786Z,2.20
2023-08-07T09:24:53.390Z,1.80
2023-08-07T09:27:21.891Z,1.52
2023-08-07T09:29:49.931Z,1.58
2023-08-07T09:32:19.682Z,1.75
2023-08-07T09:34:47.054Z,2.00
2023-08-07T09:37:14.548Z,2.22
2023-08-07T09:39:42.133Z,1.70
2023-08-07T09:42:16.781Z,1.35
2023-08-07T09:44:46.241Z,1.80
2023-08-07T09:47:15.518Z,1.40
2023-08-07T09:49:43.597Z,1.67
2023-08-07T09:52:14.578Z,1.70
2023-08-07T09:54:42.029Z,1.48
2023-08-07T09:57:09.466Z,1.67
2023-08-07T09:59:37.034Z,1.90
2023-08-07T10:02:05.194Z,2.03
2023-08-07T10:04:34.538Z,1.05
2023-08-07T10:07:03.161Z,1.50
2023-08-07T10:09:31.582Z,1.40
2023-08-07T10:12:00.483Z,1.55
2023-08-07T10:14:28.181Z,1.45
2023-08-07T10:16:56.226Z,1.40
2023-08-07T10:19:24.016Z,1.38
2023-08-07T10:21:53.479Z,1.27
2023-08-07T10:24:21.566Z,1.58
2023-08-07T10:26:49.960Z,1.25
2023-08-07T10:29:20.765Z,1.63
2023-08-07T10:31:50.070Z,1.50
2023-08-07T10:34:17.564Z,1.20
2023-08-07T10:36:46.984Z,1.30
2023-08-07T10:39:17.430Z,1.63
2023-08-07T10:41:49.111Z,1.30
2023-08-07T10:44:26.207Z,1.20
2023-08-07T10:46:58.241Z,1.65
2023-08-07T10:49:34.189Z,1.00
2023-08-07T10:52:17.320Z,1.98
2023-08-07T10:54:50.767Z,1.20
2023-08-07T10:57:20.184Z,2.13
2023-08-07T10:59:51.513Z,1.83
2023-08-07T11:02:27.123Z,1.63
2023-08-07T11:04:55.284Z,2.92
2023-08-07T11:07:30.418Z,1.38
2023-08-07T11:09:59.258Z,1.20
2023-08-07T11:12:30.059Z,1.40
2023-08-07T11:14:58.041Z,1.77
2023-08-07T11:17:27.093Z,1.30
2023-08-07T11:19:57.908Z,1.20
2023-08-07T11:22:25.628Z,1.80
2023-08-07T11:24:56.120Z,1.25
2023-08-07T11:27:24.390Z,1.60
2023-08-07T11:29:51.848Z,1.30
2023-08-07T11:32:22.920Z,1.13
2023-08-07T11:34:51.858Z,1.50
2023-08-07T11:37:20.051Z,1.58
2023-08-07T11:39:47.416Z,1.23
2023-08-07T11:42:15.213Z,1.58
2023-08-07T11:44:43.059Z,2.03
2023-08-07T11:47:11.509Z,1.35
2023-08-07T11:49:39.386Z,1.40
2023-08-07T11:52:07.351Z,1.40
2023-08-07T11:54:34.704Z,1.83
2023-08-07T11:57:04.497Z,1.70
2023-08-07T11:59:31.901Z,1.95
2023-08-07T12:01:59.290Z,1.65
2023-08-07T12:04:26.742Z,1.77
2023-08-07T12:06:58.575Z,1.55
2023-08-07T12:09:27.759Z,1.60
2023-08-07T12:12:00.734Z,1.48
2023-08-07T12:14:32.168Z,1.23
2023-08-07T12:17:04.626Z,1.65
2023-08-07T12:19:39.463Z,1.90
2023-08-07T12:22:11.962Z,1.33
2023-08-07T12:24:39.338Z,1.35
2023-08-07T12:27:07.149Z,1.73
2023-08-07T12:29:34.828Z,1.52
2023-08-07T12:32:03.820Z,1.70
2023-08-07T12:37:01.450Z,2.05
2023-08-07T12:44:29.625Z,1.70
2023-08-07T12:46:57.376Z,1.58
2023-08-07T12:49:25.945Z,1.48
2023-08-07T12:51:54.437Z,1.88
2023-08-07T12:54:29.349Z,1.38
2023-08-07T12:56:57.573Z,1.13
2023-08-07T12:59:25.218Z,1.73
2023-08-07T13:01:54.364Z,1.85
2023-08-07T13:04:22.154Z,1.45
2023-08-07T13:06:53.159Z,1.60
2023-08-07T13:09:21.759Z,1.30
2023-08-07T13:11:49.099Z,1.83
2023-08-07T13:14:16.435Z,1.40
2023-08-07T13:16:43.916Z,1.55
2023-08-07T13:19:11.291Z,1.77
2023-08-07T13:21:38.639Z,1.85
2023-08-07T13:24:06.424Z,1.52
2023-08-07T13:26:33.951Z,1.80
2023-08-07T13:29:01.479Z,1.42
2023-08-07T13:31:30.977Z,1.90
2023-08-07T13:33:58.531Z,1.52
2023-08-07T13:36:25.888Z,1.90
2023-08-07T13:38:53.318Z,2.55
2023-08-07T13:41:20.627Z,1.38
2023-08-07T13:43:47.929Z,1.92
2023-08-07T13:46:15.311Z,1.67
2023-08-07T13:48:42.758Z,1.50
2023-08-07T13:51:10.147Z,1.30
2023-08-07T13:53:37.675Z,1.85
2023-08-07T13:56:05.255Z,1.90
2023-08-07T13:58:32.622Z,1.83
2023-08-07T14:01:00.613Z,2.33
2023-08-07T14:03:28.126Z,1.60
2023-08-07T14:05:55.613Z,1.48
2023-08-07T14:08:23.371Z,1.42
2023-08-07T14:10:50.865Z,1.23
2023-08-07T14:13:20.461Z,1.33
2023-08-07T14:15:48.125Z,1.33
2023-08-07T14:18:17.023Z,2.50
2023-08-07T14:21:00.384Z,2.10
2023-08-07T14:23:31.621Z,1.67
2023-08-07T14:26:01.594Z,1.45
2023-08-07T14:28:29.935Z,1.95
2023-08-07T14:31:01.243Z,2.08
2023-08-07T14:33:29.741Z,1.67
2023-08-07T14:35:57.309Z,2.00
2023-08-07T14:38:24.686Z,1.58
2023-08-07T14:40:52.142Z,1.15
2023-08-07T14:43:22.153Z,1.58
2023-08-07T14:45:50.105Z,1.40
2023-08-07T14:48:17.558Z,2.55
2023-08-07T14:50:45.384Z,1.48
2023-08-07T14:53:13.029Z,1.63
2023-08-07T14:55:40.439Z,1.65
2023-08-07T14:58:07.742Z,1.00
2023-08-07T15:00:36.478Z,1.70
2023-08-07T15:03:04.497Z,1.85
2023-08-07T15:05:31.946Z,1.55
2023-08-07T15:08:01.073Z,1.67
2023-08-07T15:10:29.320Z,1.63
2023-08-07T15:12:59.840Z,1.77
2023-08-07T15:15:27.152Z,1.85
2023-08-07T15:17:55.850Z,1.90
2023-08-07T15:20:23.327Z,1.75
2023-08-07T15:22:53.597Z,1.50
2023-08-07T15:25:21.038Z,1.80
2023-08-07T15:27:48.432Z,1.42
2023-08-07T15:30:15.781Z,1.50
2023-08-07T15:32:43.205Z,1.55
2023-08-07T15:35:11.652Z,1.80
2023-08-07T15:37:39.123Z,1.65
2023-08-07T15:40:07.182Z,1.80
2023-08-07T15:42:34.549Z,1.35
2023-08-07T15:45:02.170Z,1.63
2023-08-07T15:47:29.559Z,1.52
2023-08-07T15:49:56.980Z,1.67
2023-08-07T15:52:24.455Z,1.45
2023-08-07T15:54:51.806Z,1.50
2023-08-07T15:57:19.267Z,1.45
2023-08-07T15:59:46.563Z,1.52
2023-08-07T16:02:14.146Z,1.48
2023-08-07T16:04:41.783Z,1.48
2023-08-07T16:07:09.125Z,1.67
2023-08-07T16:09:36.596Z,1.92
2023-08-07T16:12:04.317Z,1.50
2023-08-07T16:14:35.870Z,1.50
2023-08-07T16:17:04.668Z,1.92
2023-08-07T16:19:32.071Z,1.77
2023-08-07T16:21:59.616Z,1.90
2023-08-07T16:24:27.160Z,1.50
2023-08-07T16:26:54.547Z,1.67
2023-08-07T16:29:21.955Z,1.40
2023-08-07T16:31:49.461Z,1.55
2023-08-07T16:34:17.092Z,1.60
2023-08-07T16:36:44.874Z,1.58
2023-08-07T16:39:12.344Z,1.35
2023-08-07T16:41:46.472Z,1.63
2023-08-07T16:44:14.229Z,1.77
2023-08-07T16:46:41.683Z,2.25
2023-08-07T16:49:09.166Z,2.08
2023-08-07T16:51:36.983Z,1.90
2023-08-07T16:54:04.650Z,1.60
2023-08-07T16:56:32.269Z,1.65
2023-08-07T16:58:59.824Z,1.65
2023-08-07T17:01:27.242Z,2.42
2023-08-07T17:03:54.867Z,1.75
2023-08-07T17:06:22.358Z,1.45
2023-08-07T17:08:53.273Z,1.98
2023-08-07T17:11:21.349Z,1.42
2023-08-07T17:13:48.752Z,1.35
2023-08-07T17:16:16.292Z,1.60
2023-08-07T17:18:43.786Z,1.50
2023-08-07T17:21:11.592Z,1.80
2023-08-07T17:23:38.977Z,2.45
2023-08-07T17:26:06.381Z,2.20
2023-08-07T17:28:33.959Z,1.80
2023-08-07T17:31:02.181Z,2.25
2023-08-07T17:33:30.219Z,2.13
2023-08-07T17:35:57.925Z,2.47
2023-08-07T17:38:25.322Z,4.30
2023-08-07T17:40:54.232Z,1.77
2023-08-07T17:43:21.881Z,2.00
2023-08-07T17:45:49.381Z,2.22
2023-08-07T17:48:16.902Z,1.23
2023-08-07T17:50:44.788Z,1.88
2023-08-07T17:53:12.681Z,2.08
2023-08-07T17:55:40.097Z,2.60
2023-08-07T17:58:07.736Z,2.35
2023-08-07T18:00:36.316Z,1.55
2023-08-07T18:03:04.670Z,2.05
2023-08-07T18:05:32.113Z,6.32
2023-08-07T18:07:59.429Z,1.73
2023-08-07T18:10:26.813Z,2.25
2023-08-07T18:12:54.239Z,1.98
2023-08-07T18:15:21.690Z,2.00
2023-08-07T18:17:49.090Z,1.88
2023-08-07T18:20:16.546Z,2.20
2023-08-07T18:22:43.952Z,1.80
2023-08-07T18:25:11.352Z,1.52
2023-08-07T18:27:38.838Z,1.90
2023-08-07T18:30:10.166Z,1.70
2023-08-07T18:32:39.338Z,1.88
2023-08-07T18:35:07.631Z,2.78
2023-08-07T18:37:34.938Z,2.00
2023-08-07T18:40:02.806Z,1.60
2023-08-07T18:42:30.308Z,1.55
2023-08-07T18:44:57.626Z,1.83
2023-08-07T18:47:25.233Z,1.90
2023-08-07T18:49:52.538Z,1.90
2023-08-07T18:52:19.934Z,2.08
2023-08-07T18:54:47.268Z,2.33
2023-08-07T18:57:14.717Z,1.95
2023-08-07T18:59:42.114Z,1.75
2023-08-07T19:02:09.809Z,2.50
2023-08-07T19:04:37.251Z,2.10
2023-08-07T19:07:05.101Z,2.70
2023-08-07T19:09:32.544Z,1.38
2023-08-07T19:12:00.104Z,1.58
2023-08-07T19:14:27.498Z,1.85
2023-08-07T19:16:55.430Z,1.95
2023-08-07T19:19:22.915Z,1.58
2023-08-07T19:21:50.351Z,2.17
2023-08-07T19:24:17.978Z,1.67
2023-08-07T19:26:45.420Z,1.98
2023-08-07T19:29:13.715Z,1.45
2023-08-07T19:31:45.129Z,1.65
2023-08-07T19:34:13.097Z,1.85
2023-08-07T19:36:41.445Z,2.13
2023-08-07T19:39:09.389Z,1.58
2023-08-07T19:41:36.919Z,2.10
2023-08-07T19:44:07.404Z,1.90
2023-08-07T19:46:34.922Z,2.13
2023-08-07T19:49:02.426Z,2.40
2023-08-07T19:51:33.292Z,2.15
2023-08-07T19:54:02.402Z,1.90
2023-08-07T19:56:33.299Z,2.00
2023-08-07T19:59:04.675Z,2.05
2023-08-07T20:01:33.152Z,2.40
2023-08-07T20:04:00.821Z,2.00
2023-08-07T20:06:28.430Z,1.58
2023-08-07T20:08:56.082Z,1.98
2023-08-07T20:11:23.452Z,1.73
2023-08-07T20:13:51.461Z,2.00
2023-08-07T20:16:19.002Z,1.60
2023-08-07T20:18:46.377Z,1.73
2023-08-07T20:21:15.760Z,1.70
2023-08-07T20:23:44.049Z,1.92
2023-08-07T20:26:11.513Z,2.45
2023-08-07T20:28:38.957Z,1.63
2023-08-07T20:31:06.363Z,2.30
2023-08-07T20:33:33.812Z,1.70
2023-08-07T20:36:01.214Z,1.70
2023-08-07T20:38:28.646Z,2.25
2023-08-07T20:40:56.051Z,2.00
2023-08-07T20:43:23.714Z,1.90
2023-08-07T20:45:51.201Z,2.10
2023-08-07T20:48:18.746Z,1.30
2023-08-07T20:50:46.299Z,2.38
2023-08-07T20:53:13.746Z,2.00
2023-08-07T20:55:41.387Z,1.60
2023-08-07T20:58:08.810Z,1.85
2023-08-07T21:00:36.489Z,1.70
2023-08-07T21:03:05.239Z,1.70
2023-08-07T21:05:32.796Z,1.83
2023-08-07T21:08:00.396Z,2.05
2023-08-07T21:10:27.840Z,1.88
2023-08-07T21:12:55.238Z,1.70
2023-08-07T21:15:22.762Z,1.70
2023-08-07T21:17:50.229Z,1.58
2023-08-07T21:20:17.938Z,1.85
2023-08-07T21:22:45.638Z,1.50
2023-08-07T21:25:13.450Z,1.80
2023-08-07T21:27:41.161Z,2.15
2023-08-07T21:30:08.986Z,1.80
2023-08-07T21:32:36.899Z,2.40
2023-08-07T21:35:04.777Z,1.73
2023-08-07T21:37:32.829Z,1.52
2023-08-07T21:40:01.009Z,2.15
2023-08-07T21:42:29.604Z,1.92
2023-08-07T21:44:57.083Z,1.67
2023-08-07T21:47:24.706Z,1.50
2023-08-07T21:49:52.087Z,1.70
2023-08-07T21:52:22.346Z,2.13
2023-08-07T21:54:49.773Z,1.80
2023-08-07T21:57:17.206Z,2.10
2023-08-07T21:59:44.577Z,1.95
2023-08-07T22:02:12.004Z,2.17
2023-08-07T22:04:39.511Z,2.28
2023-08-07T22:07:07.168Z,1.80
2023-08-07T22:09:34.795Z,1.98
2023-08-07T22:12:02.822Z,1.80
2023-08-07T22:14:30.411Z,2.05
2023-08-07T22:16:58.667Z,1.90
2023-08-07T22:19:26.187Z,1.58
2023-08-07T22:21:53.784Z,1.63
2023-08-07T22:24:21.166Z,2.17
2023-08-07T22:26:48.580Z,2.22
2023-08-07T22:29:15.968Z,2.00
2023-08-07T22:31:43.382Z,1.77
2023-08-07T22:34:10.825Z,1.80
2023-08-07T22:36:38.373Z,1.73
2023-08-07T22:39:05.937Z,2.10
2023-08-07T22:41:34.468Z,1.88
2023-08-07T22:44:02.161Z,2.35
2023-08-07T22:46:29.550Z,1.77
2023-08-07T22:48:56.955Z,1.63
2023-08-07T22:51:24.995Z,1.98
2023-08-07T22:53:52.526Z,1.80
2023-08-07T22:56:19.979Z,1.88
2023-08-07T22:58:49.352Z,1.90
2023-08-07T23:01:16.810Z,1.45
2023-08-07T23:03:44.242Z,2.15
2023-08-07T23:06:11.996Z,1.63
2023-08-07T23:08:39.441Z,1.67
2023-08-07T23:11:07.129Z,1.75
2023-08-07T23:13:34.535Z,1.80
2023-08-07T23:16:01.962Z,1.90
2023-08-07T23:18:29.389Z,2.83
2023-08-07T23:20:56.828Z,1.83
2023-08-07T23:23:24.425Z,1.90
2023-08-07T23:25:51.922Z,1.60
2023-08-07T23:28:19.268Z,1.60
2023-08-07T23:30:46.815Z,1.45
2023-08-07T23:33:14.212Z,2.13
2023-08-07T23:35:41.626Z,2.67
2023-08-07T23:38:09.352Z,2.35
2023-08-07T23:40:42.594Z,2.15
2023-08-07T23:43:10.611Z,1.77
2023-08-07T23:45:38.072Z,1.60
2023-08-07T23:48:06.249Z,1.83
2023-08-07T23:50:33.904Z,2.53
2023-08-07T23:53:02.395Z,2.10
2023-08-07T23:55:29.777Z,1.70
2023-08-07T23:57:57.157Z,2.45
